createdAt,value
2023-01-06T00:01:40.817Z,6.69
2023-01-06T00:04:09.952Z,6.70
2023-01-06T00:06:39.385Z,6.71
2023-01-06T00:09:10.182Z,6.71
2023-01-06T00:11:39.728Z,6.72
2023-01-06T00:14:10.105Z,6.72
2023-01-06T00:16:39.977Z,6.73
2023-01-06T00:19:10.912Z,6.67
2023-01-06T00:21:41.765Z,6.63
2023-01-06T00:24:11.546Z,6.60
2023-01-06T00:26:43.485Z,6.56
2023-01-06T00:29:13.688Z,6.52
2023-01-06T00:31:43.692Z,6.48
2023-01-06T00:34:15.591Z,6.47
2023-01-06T00:36:44.629Z,6.43
2023-01-06T00:39:15.168Z,6.42
2023-01-06T00:42:04.495Z,6.41
2023-01-06T00:44:34.717Z,6.41
2023-01-06T00:47:07.637Z,6.37
2023-01-06T00:49:38.623Z,6.37
2023-01-06T00:52:08.246Z,6.35
2023-01-06T00:54:37.084Z,6.35
2023-01-06T00:57:07.599Z,6.33
2023-01-06T00:59:38.492Z,6.35
2023-01-06T01:02:09.148Z,6.36
2023-01-06T01:04:39.490Z,6.37
2023-01-06T01:07:10.396Z,6.35
2023-01-06T01:09:41.246Z,6.36
2023-01-06T01:12:12.284Z,6.37
2023-01-06T01:14:53.710Z,6.36
2023-01-06T01:17:27.021Z,6.35
2023-01-06T01:19:57.797Z,6.33
2023-01-06T01:22:30.225Z,6.21
2023-01-06T01:25:00.737Z,6.02
2023-01-06T01:27:31.170Z,5.81
2023-01-06T01:30:03.447Z,5.64
2023-01-06T01:32:33.288Z,5.51
2023-01-06T01:35:04.049Z,5.40
2023-01-06T01:37:33.655Z,5.28
2023-01-06T01:40:02.937Z,5.19
2023-01-06T01:42:32.518Z,5.07
2023-01-06T01:45:24.574Z,4.95
2023-01-06T01:48:04.531Z,4.89
2023-01-06T01:50:42.207Z,4.81
2023-01-06T01:53:22.834Z,4.67
2023-01-06T01:55:53.124Z,4.56
2023-01-06T01:58:28.314Z,4.42
2023-01-06T02:00:57.494Z,4.32
2023-01-06T02:03:26.700Z,4.23
2023-01-06T02:05:59.692Z,4.18
2023-01-06T02:08:37.221Z,4.10
2023-01-06T02:11:06.812Z,3.98
2023-01-06T02:13:39.098Z,3.87
2023-01-06T02:16:14.006Z,3.79
2023-01-06T02:19:05.737Z,3.74
2023-01-06T02:22:02.391Z,3.71
2023-01-06T02:24:56.130Z,3.72
2023-01-06T02:27:55.892Z,3.65
2023-01-06T02:30:52.386Z,3.58
2023-01-06T02:33:35.290Z,3.56
2023-01-06T02:36:21.926Z,3.52
2023-01-06T02:39:22.914Z,3.52
2023-01-06T02:42:20.734Z,3.46
2023-01-06T02:45:02.373Z,3.45
2023-01-06T02:47:56.987Z,3.40
2023-01-06T02:50:43.987Z,3.37
2023-01-06T02:53:52.671Z,3.34
2023-01-06T02:56:24.592Z,3.32
2023-01-06T02:59:01.754Z,3.32
2023-01-06T03:01:39.199Z,3.30
2023-01-06T03:04:14.327Z,3.27
2023-01-06T03:06:47.440Z,3.27
2023-01-06T03:09:22.347Z,3.28
2023-01-06T03:11:51.717Z,3.27
2023-01-06T03:14:35.311Z,3.24
2023-01-06T03:17:06.582Z,3.22
2023-01-06T03:19:35.878Z,3.21
2023-01-06T03:22:07.318Z,3.17
2023-01-06T03:24:37.684Z,3.13
2023-01-06T03:27:08.457Z,3.13
2023-01-06T03:29:39.052Z,3.11
2023-01-06T03:32:40.199Z,3.10
2023-01-06T03:35:31.046Z,3.07
2023-01-06T03:38:15.488Z,3.04
2023-01-06T03:41:10.244Z,3.01
2023-01-06T03:43:56.734Z,3.00
2023-01-06T03:46:37.396Z,2.97
2023-01-06T03:49:23.808Z,2.97
2023-01-06T03:51:57.889Z,2.95
2023-01-06T03:54:38.844Z,2.93
2023-01-06T03:57:18.713Z,2.89
2023-01-06T03:59:57.119Z,2.89
2023-01-06T04:02:26.403Z,2.85
2023-01-06T04:05:18.667Z,2.82
2023-01-06T04:07:48.499Z,2.78
2023-01-06T04:10:20.728Z,2.74
2023-01-06T04:12:51.157Z,2.73
2023-01-06T04:15:24.727Z,2.73
2023-01-06T04:17:54.552Z,2.72
2023-01-06T04:20:29.752Z,2.72
2023-01-06T04:23:00.551Z,2.68
2023-01-06T04:25:32.353Z,2.64
2023-01-06T04:28:04.859Z,2.59
2023-01-06T04:30:34.608Z,2.61
2023-01-06T04:33:05.067Z,2.64
2023-01-06T04:35:34.425Z,2.64
2023-01-06T04:38:03.969Z,2.66
2023-01-06T04:40:33.469Z,2.64
2023-01-06T04:43:05.818Z,2.64
2023-01-06T04:45:36.399Z,2.62
2023-01-06T04:48:06.100Z,2.63
2023-01-06T04:50:35.336Z,2.65
2023-01-06T04:53:05.569Z,2.67
2023-01-06T04:55:39.387Z,2.65
2023-01-06T04:58:09.261Z,2.62
2023-01-06T05:00:38.957Z,2.58
2023-01-06T05:03:08.258Z,2.59
2023-01-06T05:05:38.343Z,2.57
2023-01-06T05:08:09.256Z,2.55
2023-01-06T05:10:38.993Z,2.54
2023-01-06T05:13:08.344Z,2.53
2023-01-06T05:15:38.461Z,2.52
2023-01-06T05:18:08.811Z,2.52
2023-01-06T05:20:38.652Z,2.51
2023-01-06T05:23:07.574Z,2.51
2023-01-06T05:25:38.963Z,2.49
2023-01-06T05:28:08.196Z,2.47
2023-01-06T05:30:37.570Z,2.44
2023-01-06T05:33:06.639Z,2.42
2023-01-06T05:35:36.988Z,2.41
2023-01-06T05:38:06.935Z,2.44
2023-01-06T05:40:36.458Z,2.43
2023-01-06T05:43:05.941Z,2.38
2023-01-06T05:45:34.882Z,2.38
2023-01-06T05:48:05.185Z,2.36
2023-01-06T05:50:36.500Z,2.33
2023-01-06T05:53:06.202Z,2.30
2023-01-06T05:55:36.537Z,2.31
2023-01-06T05:58:06.105Z,2.27
2023-01-06T06:00:35.441Z,2.26
2023-01-06T06:03:05.639Z,2.25
2023-01-06T06:05:36.317Z,2.21
2023-01-06T06:08:06.797Z,2.17
2023-01-06T06:10:36.384Z,2.14
2023-01-06T06:13:06.551Z,2.13
2023-01-06T06:15:35.990Z,2.11
2023-01-06T06:18:05.918Z,2.10
2023-01-06T06:20:34.536Z,2.06
2023-01-06T06:23:03.430Z,2.01
2023-01-06T06:25:33.063Z,1.98
2023-01-06T06:28:03.040Z,1.96
2023-01-06T06:30:32.509Z,1.96
2023-01-06T06:33:01.708Z,1.92
2023-01-06T06:35:31.528Z,1.89
2023-01-06T06:38:00.671Z,1.90
2023-01-06T06:40:29.821Z,1.90
2023-01-06T06:42:58.432Z,1.87
2023-01-06T06:45:27.866Z,1.82
2023-01-06T06:47:57.011Z,1.81
2023-01-06T06:50:26.366Z,1.81
2023-01-06T06:52:56.062Z,1.80
2023-01-06T06:55:25.078Z,1.76
2023-01-06T06:57:54.661Z,1.74
2023-01-06T07:00:25.055Z,1.69
2023-01-06T07:02:54.707Z,1.66
2023-01-06T07:05:25.679Z,1.64
2023-01-06T07:07:57.700Z,1.62
2023-01-06T07:10:28.032Z,1.62
2023-01-06T07:12:59.179Z,1.57
2023-01-06T07:15:30.255Z,1.53
2023-01-06T07:18:06.397Z,1.48
2023-01-06T07:20:38.888Z,1.44
2023-01-06T07:23:09.368Z,1.40
2023-01-06T07:25:38.758Z,1.35
2023-01-06T07:28:09.177Z,1.33
2023-01-06T07:30:38.978Z,1.34
2023-01-06T07:33:09.122Z,1.35
2023-01-06T07:35:38.736Z,1.35
2023-01-06T07:38:08.244Z,1.36
2023-01-06T07:40:37.893Z,1.36
2023-01-06T07:43:11.933Z,1.32
2023-01-06T07:45:43.055Z,1.31
2023-01-06T07:48:15.591Z,1.27
2023-01-06T07:50:46.712Z,1.22
2023-01-06T07:53:38.572Z,1.19
2023-01-06T07:56:07.603Z,1.20
2023-01-06T07:58:37.663Z,1.16
2023-01-06T08:01:09.197Z,1.15
2023-01-06T08:03:40.360Z,1.15
2023-01-06T08:06:11.406Z,1.14
2023-01-06T08:08:41.646Z,1.16
2023-01-06T08:11:13.156Z,1.20
2023-01-06T08:13:42.688Z,1.19
2023-01-06T08:16:12.498Z,1.12
2023-01-06T08:18:42.292Z,1.09
2023-01-06T08:21:14.198Z,1.07
2023-01-06T08:23:43.639Z,1.07
2023-01-06T08:26:15.140Z,1.05
2023-01-06T08:28:46.303Z,1.02
2023-01-06T08:31:19.016Z,1.04
2023-01-06T08:33:48.495Z,0.98
2023-01-06T08:36:19.760Z,0.95
2023-01-06T08:38:49.580Z,0.96
2023-01-06T08:41:18.971Z,0.97
2023-01-06T08:43:51.753Z,0.98
2023-01-06T08:46:22.309Z,1.02
2023-01-06T08:48:51.958Z,1.04
2023-01-06T08:51:23.345Z,1.06
2023-01-06T08:53:53.206Z,1.05
2023-01-06T08:56:26.910Z,0.99
2023-01-06T08:59:02.780Z,0.97
2023-01-06T09:01:36.956Z,0.95
2023-01-06T09:04:08.075Z,0.92
2023-01-06T09:06:37.639Z,1.00
2023-01-06T09:09:08.497Z,0.99
2023-01-06T09:11:39.307Z,0.93
2023-01-06T09:14:10.703Z,0.89
2023-01-06T09:16:39.677Z,0.85
2023-01-06T09:19:11.206Z,0.83
2023-01-06T09:21:42.657Z,0.82
2023-01-06T09:24:15.655Z,0.78
2023-01-06T09:26:45.210Z,0.75
2023-01-06T09:29:13.874Z,0.73
2023-01-06T09:31:44.419Z,0.76
2023-01-06T09:34:15.100Z,0.74
2023-01-06T09:36:44.615Z,0.73
2023-01-06T09:39:14.384Z,0.71
2023-01-06T09:42:22.287Z,0.68
2023-01-06T09:44:58.723Z,0.62
2023-01-06T09:47:39.648Z,0.57
2023-01-06T09:50:16.469Z,0.51
2023-01-06T09:52:53.031Z,0.49
2023-01-06T09:55:48.646Z,0.49
2023-01-06T09:58:24.996Z,0.50
2023-01-06T10:00:55.982Z,0.45
2023-01-06T10:03:26.754Z,0.39
2023-01-06T10:06:23.328Z,0.37
2023-01-06T10:09:15.954Z,0.34
2023-01-06T10:12:02.469Z,0.26
2023-01-06T10:14:40.612Z,0.24
2023-01-06T10:17:30.468Z,0.25
2023-01-06T10:20:07.690Z,0.22
2023-01-06T10:23:11.427Z,0.16
2023-01-06T10:25:49.123Z,0.12
2023-01-06T10:28:30.769Z,0.10
2023-01-06T10:31:03.614Z,0.07
2023-01-06T10:33:38.530Z,-0.02
2023-01-06T10:36:17.319Z,-0.03
2023-01-06T10:38:52.798Z,-0.02
2023-01-06T10:41:51.540Z,-0.01
2023-01-06T10:44:23.127Z,-0.02
2023-01-06T10:46:52.408Z,0.01
2023-01-06T10:49:22.816Z,0.03
2023-01-06T10:52:00.128Z,0.05
2023-01-06T10:54:30.484Z,0.10
2023-01-06T10:57:05.384Z,0.15
2023-01-06T10:59:34.679Z,0.16
2023-01-06T11:02:03.702Z,0.12
2023-01-06T11:04:32.756Z,0.11
2023-01-06T11:07:02.888Z,0.12
2023-01-06T11:09:40.347Z,0.10
2023-01-06T11:12:23.461Z,0.07
2023-01-06T11:15:02.005Z,0.04
2023-01-06T11:17:30.970Z,-0.02
2023-01-06T11:20:11.322Z,0.01
2023-01-06T11:22:42.049Z,0.01
2023-01-06T11:25:33.776Z,0.01
2023-01-06T11:28:20.548Z,-0.01
2023-01-06T11:31:12.620Z,0.01
2023-01-06T11:34:01.044Z,0.02
2023-01-06T11:36:32.960Z,0.01
2023-01-06T11:39:13.608Z,0.03
2023-01-06T11:41:46.619Z,-0.04
2023-01-06T11:44:29.688Z,-0.09
2023-01-06T11:47:23.064Z,-0.09
2023-01-06T11:49:58.359Z,-0.07
2023-01-06T11:52:31.181Z,-0.10
2023-01-06T11:55:13.998Z,-0.16
2023-01-06T11:57:48.529Z,-0.19
2023-01-06T12:00:46.949Z,-0.23
2023-01-06T12:03:40.261Z,-0.26
2023-01-06T12:06:30.619Z,-0.24
2023-01-06T12:09:09.170Z,-0.27
2023-01-06T12:11:55.478Z,-0.28
2023-01-06T12:14:32.010Z,-0.24
2023-01-06T12:17:21.528Z,-0.27
2023-01-06T12:19:59.270Z,-0.26
2023-01-06T12:22:52.704Z,-0.25
2023-01-06T12:29:03.637Z,-0.28
2023-01-06T12:31:47.499Z,-0.38
2023-01-06T12:34:29.548Z,-0.40
2023-01-06T12:37:22.650Z,-0.42
2023-01-06T12:40:00.824Z,-0.44
2023-01-06T12:42:38.303Z,-0.43
2023-01-06T12:45:18.160Z,-0.43
2023-01-06T12:47:55.843Z,-0.47
2023-01-06T12:50:42.724Z,-0.52
2023-01-06T12:53:20.825Z,-0.54
2023-01-06T12:56:08.630Z,-0.55
2023-01-06T12:59:27.829Z,-0.56
2023-01-06T13:02:08.920Z,-0.55
2023-01-06T13:05:02.454Z,-0.58
2023-01-06T13:07:57.036Z,-0.60
2023-01-06T13:10:51.172Z,-0.64
2023-01-06T13:13:46.730Z,-0.65
2023-01-06T13:16:42.932Z,-0.65
2023-01-06T13:19:29.781Z,-0.65
2023-01-06T13:21:59.381Z,-0.63
2023-01-06T13:24:43.121Z,-0.61
2023-01-06T13:27:46.140Z,-0.58
2023-01-06T13:30:49.302Z,-0.57
2023-01-06T13:33:32.527Z,-0.57
2023-01-06T13:36:31.357Z,-0.60
2023-01-06T13:39:11.493Z,-0.67
2023-01-06T13:41:40.977Z,-0.71
2023-01-06T13:44:20.357Z,-0.74
2023-01-06T13:46:50.171Z,-0.71
2023-01-06T13:49:19.968Z,-0.77
2023-01-06T13:51:49.505Z,-0.81
2023-01-06T13:54:44.185Z,-0.88
2023-01-06T13:57:27.823Z,-0.90
2023-01-06T14:00:16.357Z,-0.90
2023-01-06T14:03:00.233Z,-0.90
2023-01-06T14:05:35.337Z,-0.92
2023-01-06T14:08:05.048Z,-0.97
2023-01-06T14:10:39.571Z,-1.07
2023-01-06T14:13:24.440Z,-1.12
2023-01-06T14:16:11.554Z,-1.15
2023-01-06T14:18:52.316Z,-1.19
2023-01-06T14:21:31.016Z,-1.19
2023-01-06T14:24:05.297Z,-1.20
2023-01-06T14:26:56.479Z,-1.19
2023-01-06T14:29:45.589Z,-1.21
2023-01-06T14:32:22.933Z,-1.22
2023-01-06T14:35:13.355Z,-1.25
2023-01-06T14:37:47.577Z,-1.29
2023-01-06T14:40:27.590Z,-1.31
2023-01-06T14:42:59.432Z,-1.33
2023-01-06T14:45:32.385Z,-1.35
2023-01-06T14:48:10.645Z,-1.37
2023-01-06T14:50:47.624Z,-1.41
2023-01-06T14:53:36.585Z,-1.39
2023-01-06T14:56:06.004Z,-1.42
2023-01-06T14:58:40.247Z,-1.45
2023-01-06T15:01:29.036Z,-1.51
2023-01-06T15:04:00.322Z,-1.57
2023-01-06T15:06:29.437Z,-1.53
2023-01-06T15:09:21.838Z,-1.53
2023-01-06T15:11:51.023Z,-1.51
2023-01-06T15:14:32.948Z,-1.53
2023-01-06T15:17:06.389Z,-1.54
2023-01-06T15:19:35.382Z,-1.55
2023-01-06T15:22:07.528Z,-1.55
2023-01-06T15:24:39.207Z,-1.53
2023-01-06T15:27:14.369Z,-1.55
2023-01-06T15:29:55.608Z,-1.62
2023-01-06T15:32:26.136Z,-1.64
2023-01-06T15:34:56.460Z,-1.60
2023-01-06T15:37:30.310Z,-1.60
2023-01-06T15:39:59.051Z,-1.61
2023-01-06T15:42:27.691Z,-1.64
2023-01-06T15:45:01.501Z,-1.64
2023-01-06T15:47:42.039Z,-1.66
2023-01-06T15:50:24.210Z,-1.69
2023-01-06T15:53:00.542Z,-1.69
2023-01-06T15:55:35.640Z,-1.66
2023-01-06T15:58:11.798Z,-1.61
2023-01-06T16:00:48.931Z,-1.59
2023-01-06T16:03:23.090Z,-1.62
2023-01-06T16:05:57.648Z,-1.64
2023-01-06T16:08:26.535Z,-1.66
2023-01-06T16:11:21.929Z,-1.67
2023-01-06T16:13:58.425Z,-1.71
2023-01-06T16:16:37.199Z,-1.77
2023-01-06T16:19:17.710Z,-1.80
2023-01-06T16:21:46.544Z,-1.80
2023-01-06T16:24:21.473Z,-1.79
2023-01-06T16:26:56.891Z,-1.80
2023-01-06T16:29:33.532Z,-1.80
2023-01-06T16:32:30.744Z,-1.80
2023-01-06T16:35:06.900Z,-1.83
2023-01-06T16:37:36.487Z,-1.88
2023-01-06T16:40:07.064Z,-1.95
2023-01-06T16:42:42.128Z,-2.00
2023-01-06T16:45:34.393Z,-2.02
2023-01-06T16:48:03.347Z,-2.06
2023-01-06T16:50:40.674Z,-2.10
2023-01-06T16:53:20.673Z,-2.09
2023-01-06T16:55:57.396Z,-2.12
2023-01-06T16:58:29.365Z,-2.13
2023-01-06T17:01:02.401Z,-2.15
2023-01-06T17:03:36.269Z,-2.19
2023-01-06T17:06:12.378Z,-2.24
2023-01-06T17:08:40.982Z,-2.26
2023-01-06T17:11:17.008Z,-2.26
2023-01-06T17:14:03.328Z,-2.28
2023-01-06T17:16:35.134Z,-2.30
2023-01-06T17:19:24.269Z,-2.36
2023-01-06T17:22:26.353Z,-2.40
2023-01-06T17:24:58.117Z,-2.42
2023-01-06T17:27:29.506Z,-2.44
2023-01-06T17:30:00.982Z,-2.49
2023-01-06T17:32:37.099Z,-2.53
2023-01-06T17:35:28.063Z,-2.59
2023-01-06T17:38:02.663Z,-2.64
2023-01-06T17:40:37.671Z,-2.65
2023-01-06T17:43:24.451Z,-2.67
2023-01-06T17:45:54.018Z,-2.71
2023-01-06T17:48:23.574Z,-2.75
2023-01-06T17:50:55.313Z,-2.79
2023-01-06T17:53:52.182Z,-2.88
2023-01-06T17:56:22.597Z,-2.94
2023-01-06T17:58:51.984Z,-2.98
2023-01-06T18:01:28.959Z,-3.03
2023-01-06T18:04:00.367Z,-3.08
2023-01-06T18:06:33.810Z,-3.16
2023-01-06T18:09:14.001Z,-3.18
2023-01-06T18:11:51.284Z,-3.17
2023-01-06T18:14:25.318Z,-3.24
2023-01-06T18:16:56.612Z,-3.29
2023-01-06T18:19:37.113Z,-3.33
2023-01-06T18:22:23.673Z,-3.34
2023-01-06T18:24:56.264Z,-3.32
2023-01-06T18:27:28.196Z,-3.32
2023-01-06T18:30:04.094Z,-3.40
2023-01-06T18:32:35.562Z,-3.45
2023-01-06T18:35:12.060Z,-3.44
2023-01-06T18:37:41.230Z,-3.46
2023-01-06T18:40:20.659Z,-3.49
2023-01-06T18:42:50.495Z,-3.55
2023-01-06T18:45:32.336Z,-3.56
2023-01-06T18:48:18.088Z,-3.57
2023-01-06T18:50:47.599Z,-3.57
2023-01-06T18:53:31.656Z,-3.60
2023-01-06T18:56:16.575Z,-3.67
2023-01-06T18:58:49.173Z,-3.71
2023-01-06T19:01:32.610Z,-3.77
2023-01-06T19:04:14.715Z,-3.82
2023-01-06T19:06:54.425Z,-3.85
2023-01-06T19:09:34.692Z,-3.85
2023-01-06T19:12:22.390Z,-3.89
2023-01-06T19:14:52.807Z,-4.00
2023-01-06T19:17:33.929Z,-4.00
2023-01-06T19:20:17.070Z,-3.94
2023-01-06T19:22:46.519Z,-3.89
2023-01-06T19:25:44.872Z,-3.88
2023-01-06T19:28:20.071Z,-3.84
2023-01-06T19:30:54.888Z,-3.77
2023-01-06T19:33:59.261Z,-3.75
2023-01-06T19:36:45.758Z,-3.77
2023-01-06T19:39:32.428Z,-3.86
2023-01-06T19:42:24.526Z,-3.93
2023-01-06T19:44:56.709Z,-3.93
2023-01-06T19:47:29.163Z,-3.98
2023-01-06T19:50:01.726Z,-3.92
2023-01-06T19:52:39.877Z,-3.92
2023-01-06T19:55:23.522Z,-3.94
2023-01-06T19:58:02.811Z,-3.92
2023-01-06T20:00:39.163Z,-3.93
2023-01-06T20:03:31.571Z,-3.93
2023-01-06T20:06:00.167Z,-3.93
2023-01-06T20:08:29.715Z,-3.92
2023-01-06T20:10:58.651Z,-3.95
2023-01-06T20:13:28.632Z,-3.98
2023-01-06T20:15:58.339Z,-4.01
2023-01-06T20:18:29.178Z,-4.01
2023-01-06T20:20:58.907Z,-4.03
2023-01-06T20:23:27.635Z,-4.04
2023-01-06T20:25:56.880Z,-4.05
2023-01-06T20:28:25.509Z,-4.10
2023-01-06T20:30:54.558Z,-4.10
2023-01-06T20:33:24.517Z,-4.08
2023-01-06T20:35:53.635Z,-4.10
2023-01-06T20:38:24.177Z,-4.10
2023-01-06T20:40:53.321Z,-4.12
2023-01-06T20:43:24.453Z,-4.13
2023-01-06T20:45:54.395Z,-4.16
2023-01-06T20:48:24.184Z,-4.12
2023-01-06T20:50:53.404Z,-4.09
2023-01-06T20:53:22.414Z,-4.03
2023-01-06T20:55:53.921Z,-4.01
2023-01-06T20:58:24.337Z,-4.00
2023-01-06T21:00:53.441Z,-3.99
2023-01-06T21:03:23.411Z,-4.02
2023-01-06T21:05:53.883Z,-4.09
2023-01-06T21:08:23.940Z,-4.17
2023-01-06T21:10:53.412Z,-4.19
2023-01-06T21:13:24.194Z,-4.23
2023-01-06T21:15:54.038Z,-4.28
2023-01-06T21:18:23.069Z,-4.32
2023-01-06T21:20:52.315Z,-4.36
2023-01-06T21:23:23.478Z,-4.43
2023-01-06T21:25:52.124Z,-4.45
2023-01-06T21:28:22.110Z,-4.49
2023-01-06T21:30:51.212Z,-4.54
2023-01-06T21:33:21.651Z,-4.54
2023-01-06T21:35:51.027Z,-4.60
2023-01-06T21:38:20.201Z,-4.64
2023-01-06T21:40:49.204Z,-4.66
2023-01-06T21:43:19.797Z,-4.69
2023-01-06T21:45:49.057Z,-4.71
2023-01-06T21:48:20.096Z,-4.74
2023-01-06T21:50:49.414Z,-4.74
2023-01-06T21:53:19.739Z,-4.75
2023-01-06T21:55:49.825Z,-4.75
2023-01-06T21:58:21.367Z,-4.77
2023-01-06T22:00:50.161Z,-4.87
2023-01-06T22:03:21.130Z,-4.91
2023-01-06T22:05:51.600Z,-4.96
2023-01-06T22:08:20.803Z,-5.01
2023-01-06T22:10:50.304Z,-5.07
2023-01-06T22:13:21.230Z,-5.07
2023-01-06T22:15:52.224Z,-5.04
2023-01-06T22:18:22.391Z,-5.02
2023-01-06T22:20:53.028Z,-5.00
2023-01-06T22:23:21.806Z,-5.03
2023-01-06T22:25:51.818Z,-5.06
2023-01-06T22:28:22.958Z,-5.11
2023-01-06T22:30:53.750Z,-5.12
2023-01-06T22:33:23.460Z,-5.13
2023-01-06T22:35:58.030Z,-5.14
2023-01-06T22:38:27.763Z,-5.13
2023-01-06T22:40:59.492Z,-5.13
2023-01-06T22:43:28.278Z,-5.23
2023-01-06T22:45:58.180Z,-5.28
2023-01-06T22:48:27.123Z,-5.30
2023-01-06T22:51:00.675Z,-5.27
2023-01-06T22:53:30.206Z,-5.32
2023-01-06T22:56:06.618Z,-5.38
2023-01-06T22:58:38.871Z,-5.44
2023-01-06T23:01:08.036Z,-5.41
2023-01-06T23:03:38.867Z,-5.48
2023-01-06T23:06:11.636Z,-5.52
2023-01-06T23:08:51.118Z,-5.64
2023-01-06T23:11:17.039Z,-5.75
2023-01-06T23:13:47.154Z,-5.72
2023-01-06T23:16:19.733Z,-5.69
2023-01-06T23:18:49.755Z,-5.66
2023-01-06T23:21:22.982Z,-5.68
2023-01-06T23:23:53.174Z,-5.72
2023-01-06T23:26:33.911Z,-5.74
2023-01-06T23:29:03.155Z,-5.75
2023-01-06T23:31:35.692Z,-5.73
2023-01-06T23:34:08.550Z,-5.75
2023-01-06T23:36:38.881Z,-5.79
2023-01-06T23:39:11.651Z,-5.79
2023-01-06T23:41:40.387Z,-5.80
2023-01-06T23:44:16.489Z,-5.78
2023-01-06T23:46:45.282Z,-5.81
2023-01-06T23:49:16.031Z,-5.79
2023-01-06T23:51:44.719Z,-5.84
2023-01-06T23:54:14.058Z,-5.87
2023-01-06T23:56:43.002Z,-5.83
2023-01-06T23:59:12.227Z,-5.86
